Time;durP1;ratioP1;P1;durP2;ratioP2;P2;SDS_P1;SDS_P2;PMS_P1;PMS_P2;Temp;Humidity;BMP_temperature;BMP_pressure;BME280_temperature;BME280_humidity;BME280_pressure;Samples;Min_cycle;Max_cycle;Signal;HPM_P1;HPM_P2
2023/03/02 00:02:39;;;;;;;33.53;21.98;;;;;;;0.65;100.00;102576.75;10415267;28;20037;-70
2023/03/02 00:07:39;;;;;;;33.67;23.27;;;;;;;0.78;100.00;102571.53;10396564;28;20079;-71
2023/03/02 00:12:40;;;;;;;43.85;26.85;;;;;;;0.82;100.00;102577.53;10417347;28;20044;-70
2023/03/02 00:17:40;;;;;;;37.13;26.42;;;;;;;0.77;100.00;102574.31;10420653;28;20034;-70
2023/03/02 00:22:42;;;;;;;54.60;30.95;;;;;;;0.82;100.00;102566.88;10414433;28;20040;-71
2023/03/02 00:27:43;;;;;;;47.72;30.60;;;;;;;0.78;100.00;102566.22;10414156;28;20030;-71
2023/03/02 00:32:44;;;;;;;39.10;28.83;;;;;;;0.81;100.00;102560.69;10413107;28;20034;-70
2023/03/02 00:37:45;;;;;;;53.95;35.80;;;;;;;0.84;100.00;102552.50;10412413;28;20045;-70
2023/03/02 00:42:45;;;;;;;55.50;34.63;;;;;;;0.79;100.00;102551.91;10413864;28;20037;-70
2023/03/02 00:47:45;;;;;;;55.00;36.95;;;;;;;0.75;100.00;102547.72;10422176;28;20038;-71
2023/03/02 00:52:46;;;;;;;52.20;37.40;;;;;;;0.77;100.00;102553.84;10419102;28;20037;-71
2023/03/02 00:57:53;;;;;;;73.43;40.17;;;;;;;0.72;100.00;102549.72;10420588;28;20037;-70
2023/03/02 01:02:54;;;;;;;48.88;34.72;;;;;;;0.61;100.00;102543.25;10419931;28;20033;-71
2023/03/02 01:07:54;;;;;;;61.78;41.22;;;;;;;0.63;100.00;102546.66;10402534;28;20034;-71
2023/03/02 01:12:55;;;;;;;59.47;40.58;;;;;;;0.60;100.00;102545.97;10403295;28;20113;-71
2023/03/02 01:17:55;;;;;;;60.47;39.60;;;;;;;0.56;100.00;102541.78;10419528;28;20392;-71
2023/03/02 01:22:56;;;;;;;54.38;38.92;;;;;;;0.57;100.00;102546.16;10419644;28;20029;-71
2023/03/02 01:27:57;;;;;;;61.45;41.17;;;;;;;0.63;100.00;102549.31;10403265;28;20116;-70
2023/03/02 01:32:57;;;;;;;64.47;44.22;;;;;;;0.67;100.00;102547.31;10419759;28;20041;-71
2023/03/02 01:37:57;;;;;;;65.82;42.20;;;;;;;0.63;100.00;102530.66;10421316;28;20044;-71
2023/03/02 01:43:01;;;;;;;64.20;41.85;;;;;;;0.66;100.00;102530.47;10421076;28;20041;-70
2023/03/02 01:48:01;;;;;;;63.67;43.30;;;;;;;0.56;100.00;102531.97;10421864;28;20033;-71
2023/03/02 01:53:02;;;;;;;58.55;39.22;;;;;;;0.47;100.00;102536.03;10388507;28;20060;-70
2023/03/02 01:58:02;;;;;;;61.00;41.83;;;;;;;0.37;100.00;102529.56;10410069;28;20037;-70
2023/03/02 02:03:08;;;;;;;70.28;42.88;;;;;;;0.28;100.00;102523.91;10402061;28;20041;-70
2023/03/02 02:08:09;;;;;;;60.20;39.65;;;;;;;0.21;100.00;102528.75;10401247;28;20052;-70
2023/03/02 02:13:09;;;;;;;54.10;33.03;;;;;;;0.09;100.00;102525.00;10418259;28;20063;-70
2023/03/02 02:18:10;;;;;;;55.72;39.20;;;;;;;0.01;100.00;102524.59;10418131;28;20444;-70
2023/03/02 02:23:38;;;;;;;65.35;40.15;;;;;;;-0.04;100.00;102519.53;10418115;28;20060;-70
2023/03/02 02:28:41;;;;;;;66.78;37.17;;;;;;;-0.13;100.00;102511.19;10417911;28;20037;-70
2023/03/02 02:33:44;;;;;;;62.25;36.90;;;;;;;-0.16;100.00;102500.72;10417473;28;20138;-70
2023/03/02 02:38:46;;;;;;;63.78;37.10;;;;;;;-0.09;100.00;102510.09;10417383;28;20034;-70
2023/03/02 02:43:47;;;;;;;60.15;36.17;;;;;;;-0.13;100.00;102513.88;10399835;28;20030;-70
2023/03/02 02:48:47;;;;;;;72.07;43.85;;;;;;;-0.14;100.00;102501.50;10399348;28;20037;-70
2023/03/02 02:54:00;;;;;;;81.25;42.67;;;;;;;-0.15;100.00;102503.31;10416418;28;20041;-70
2023/03/02 02:59:20;;;;;;;82.07;42.15;;;;;;;-0.16;100.00;102503.38;10415392;28;20034;-70
2023/03/02 03:04:27;;;;;;;71.95;42.20;;;;;;;-0.15;100.00;102505.97;10410029;28;20042;-70
2023/03/02 03:09:27;;;;;;;76.18;43.00;;;;;;;-0.14;100.00;102497.03;10414742;28;20053;-70
2023/03/02 03:14:33;;;;;;;65.38;44.45;;;;;;;-0.14;100.00;102493.53;10415381;28;20065;-71
2023/03/02 03:19:33;;;;;;;70.70;44.58;;;;;;;-0.11;100.00;102488.03;10415032;28;20128;-72
2023/03/02 03:24:34;;;;;;;79.63;46.42;;;;;;;-0.09;100.00;102488.81;10416529;28;20410;-72
2023/03/02 03:29:35;;;;;;;69.00;41.90;;;;;;;-0.13;100.00;102482.78;10416115;28;20120;-72
2023/03/02 03:34:39;;;;;;;80.30;43.40;;;;;;;-0.16;100.00;102482.97;10380967;28;20468;-71
2023/03/02 03:39:39;;;;;;;66.30;42.70;;;;;;;-0.15;100.00;102484.69;10416097;28;20037;-73
2023/03/02 03:44:40;;;;;;;71.22;44.13;;;;;;;-0.12;100.00;102486.31;10413955;28;20465;-71
2023/03/02 03:49:40;;;;;;;69.55;45.03;;;;;;;-0.02;100.00;102475.03;10414239;28;20433;-73
2023/03/02 03:54:41;;;;;;;72.40;43.60;;;;;;;-0.01;100.00;102475.88;10415908;28;20033;-72
2023/03/02 03:59:41;;;;;;;70.45;45.25;;;;;;;0.05;100.00;102483.50;10397783;28;20040;-72
2023/03/02 04:04:41;;;;;;;80.78;40.95;;;;;;;-0.02;100.00;102493.66;10414678;28;20080;-72
2023/03/02 04:09:42;;;;;;;79.20;46.92;;;;;;;-0.04;100.00;102492.03;10413708;28;20140;-72
2023/03/02 04:14:42;;;;;;;64.50;40.33;;;;;;;-0.07;100.00;102497.53;10413542;28;20046;-75
2023/03/02 04:19:44;;;;;;;62.13;37.72;;;;;;;-0.11;100.00;102496.00;10414905;28;20033;-71
2023/03/02 04:24:45;;;;;;;68.22;38.33;;;;;;;-0.17;100.00;102496.34;10414574;28;20140;-72
2023/03/02 04:29:46;;;;;;;59.15;34.47;;;;;;;-0.22;100.00;102504.63;10421686;28;20440;-72
2023/03/02 04:34:47;;;;;;;53.17;35.13;;;;;;;-0.28;100.00;102494.31;10421623;28;20041;-72
2023/03/02 04:39:50;;;;;;;64.05;38.55;;;;;;;-0.40;100.00;102485.22;10421540;28;20040;-72
2023/03/02 04:44:50;;;;;;;67.15;38.55;;;;;;;-0.38;100.00;102479.81;10421417;28;20038;-73
2023/03/02 04:49:53;;;;;;;66.88;39.33;;;;;;;-0.37;100.00;102494.84;10422423;28;20049;-72
2023/03/02 04:54:53;;;;;;;57.92;35.97;;;;;;;-0.35;100.00;102484.94;10419324;28;20049;-73
2023/03/02 04:59:54;;;;;;;62.15;38.58;;;;;;;-0.34;100.00;102487.53;10420219;28;20444;-73
2023/03/02 05:04:54;;;;;;;67.32;35.60;;;;;;;-0.29;100.00;102488.16;10420776;28;20136;-72
2023/03/02 05:09:55;;;;;;;62.88;41.63;;;;;;;-0.24;100.00;102488.72;10418993;28;20053;-71
2023/03/02 05:14:55;;;;;;;58.75;38.13;;;;;;;-0.19;100.00;102490.25;10420027;28;20558;-73
2023/03/02 05:19:56;;;;;;;67.18;39.03;;;;;;;-0.22;100.00;102477.13;10420217;28;20033;-73
2023/03/02 05:24:56;;;;;;;62.53;39.50;;;;;;;-0.26;100.00;102482.63;10419919;28;20041;-72
2023/03/02 05:29:56;;;;;;;66.43;40.90;;;;;;;-0.31;100.00;102462.56;10420450;28;20052;-73
2023/03/02 05:34:57;;;;;;;62.55;38.72;;;;;;;-0.31;100.00;102471.41;10417709;28;20042;-73
2023/03/02 05:39:57;;;;;;;56.92;35.70;;;;;;;-0.40;100.00;102469.25;10416287;28;20180;-73
2023/03/02 05:44:57;;;;;;;52.70;33.28;;;;;;;-0.42;100.00;102475.59;10419387;28;20459;-72
2023/03/02 05:49:58;;;;;;;63.55;35.67;;;;;;;-0.43;100.00;102480.09;10418224;28;20045;-72
2023/03/02 05:54:58;;;;;;;52.60;34.50;;;;;;;-0.54;100.00;102478.03;10434025;28;20385;-73
2023/03/02 05:59:59;;;;;;;55.55;33.70;;;;;;;-0.27;100.00;102480.91;10400465;28;20428;-72
2023/03/02 06:04:59;;;;;;;56.80;33.72;;;;;;;-0.24;100.00;102486.06;10417756;28;20087;-73
2023/03/02 06:10:00;;;;;;;52.47;35.40;;;;;;;-0.43;100.00;102482.75;10419057;28;20052;-70
2023/03/02 06:15:00;;;;;;;52.30;30.42;;;;;;;-0.59;100.00;102489.88;10417719;28;20025;-71
2023/03/02 06:20:00;;;;;;;58.28;35.60;;;;;;;-0.63;100.00;102499.84;10416768;28;20076;-72
2023/03/02 06:25:01;;;;;;;55.42;32.88;;;;;;;-0.64;100.00;102506.09;10416488;28;20419;-72
2023/03/02 06:30:01;;;;;;;67.35;37.60;;;;;;;-0.58;100.00;102513.72;10416767;28;20052;-71
2023/03/02 06:35:02;;;;;;;52.17;33.47;;;;;;;-0.51;100.00;102515.13;10400174;28;20068;-72
2023/03/02 06:40:09;;;;;;;60.88;35.50;;;;;;;-0.51;100.00;102511.56;10415755;28;20524;-71
2023/03/02 06:45:10;;;;;;;62.53;35.45;;;;;;;-0.24;100.00;102512.69;10417444;28;20030;-71
2023/03/02 06:50:10;;;;;;;66.88;37.28;;;;;;;-0.09;100.00;102515.44;10416295;28;20045;-72
2023/03/02 06:55:11;;;;;;;56.83;33.72;;;;;;;0.39;100.00;102508.16;10430951;28;20451;-71
2023/03/02 07:00:15;;;;;;;63.22;38.45;;;;;;;0.98;100.00;102508.97;10414730;28;20038;-70
2023/03/02 07:05:16;;;;;;;62.50;35.13;;;;;;;1.51;100.00;102507.38;10414655;28;20499;-71
2023/03/02 07:10:16;;;;;;;70.30;39.75;;;;;;;2.05;100.00;102518.06;10414442;28;20045;-72
2023/03/02 07:15:17;;;;;;;63.67;41.15;;;;;;;2.38;100.00;102514.06;10397623;28;20044;-71
2023/03/02 07:20:17;;;;;;;69.95;42.80;;;;;;;2.56;100.00;102520.00;10414266;28;20041;-72
2023/03/02 07:25:18;;;;;;;75.88;44.83;;;;;;;3.09;100.00;102530.56;10415352;28;20044;-71
2023/03/02 07:30:20;;;;;;;77.80;44.65;;;;;;;3.32;100.00;102524.47;10415512;28;20083;-72
2023/03/02 07:35:20;;;;;;;71.65;43.88;;;;;;;3.81;100.00;102528.06;10414091;28;20046;-73
2023/03/02 07:40:20;;;;;;;70.03;40.83;;;;;;;4.09;100.00;102521.50;10414769;28;20037;-72
2023/03/02 07:45:23;;;;;;;58.88;39.50;;;;;;;4.51;100.00;102519.19;10412795;28;20499;-72
2023/03/02 07:50:24;;;;;;;64.03;38.60;;;;;;;4.76;100.00;102515.47;10413849;28;20342;-72
2023/03/02 07:55:24;;;;;;;46.42;32.95;;;;;;;4.90;100.00;102518.75;10396097;28;20037;-72
2023/03/02 08:00:25;;;;;;;47.63;24.20;;;;;;;5.21;100.00;102526.22;10415849;28;20555;-71
2023/03/02 08:05:25;;;;;;;37.88;20.80;;;;;;;5.31;100.00;102524.50;10422769;28;20037;-72
2023/03/02 08:10:25;;;;;;;32.00;22.75;;;;;;;5.38;100.00;102516.81;10422240;28;20045;-72
2023/03/02 08:15:26;;;;;;;29.27;19.40;;;;;;;5.11;100.00;102516.22;10423497;28;20057;-72
2023/03/02 08:20:26;;;;;;;36.92;21.65;;;;;;;5.38;100.00;102506.06;10421215;28;20044;-72
2023/03/02 08:25:26;;;;;;;26.77;18.60;;;;;;;5.85;100.00;102512.06;10422899;28;20334;-71
2023/03/02 08:30:27;;;;;;;25.48;17.92;;;;;;;6.05;100.00;102505.91;10421081;28;20034;-71
2023/03/02 08:35:27;;;;;;;31.77;20.17;;;;;;;6.48;100.00;102505.84;10422325;28;20060;-71
2023/03/02 08:40:28;;;;;;;36.08;21.88;;;;;;;6.84;100.00;102502.78;10421695;28;20076;-72
2023/03/02 08:45:28;;;;;;;31.48;17.65;;;;;;;6.78;100.00;102506.00;10420365;28;20064;-71
2023/03/02 08:50:28;;;;;;;28.88;17.35;;;;;;;7.05;100.00;102506.31;10422003;28;20030;-72
2023/03/02 08:55:29;;;;;;;34.65;19.70;;;;;;;7.41;100.00;102507.56;10422967;28;20088;-72
2023/03/02 09:00:29;;;;;;;32.97;16.33;;;;;;;7.25;100.00;102496.44;10422849;28;20420;-70
2023/03/02 09:05:30;;;;;;;23.52;17.98;;;;;;;7.65;100.00;102495.53;10421283;28;20065;-71
2023/03/02 09:10:30;;;;;;;28.00;17.45;;;;;;;8.08;100.00;102495.16;10421001;28;20049;-71
2023/03/02 09:15:30;;;;;;;24.33;16.02;;;;;;;7.84;100.00;102506.34;10420797;28;20046;-71
2023/03/02 09:20:32;;;;;;;25.73;15.95;;;;;;;8.24;100.00;102497.28;10421118;28;20457;-71
2023/03/02 09:25:33;;;;;;;26.95;16.23;;;;;;;8.32;98.66;102485.78;10420038;28;20030;-71
2023/03/02 09:30:33;;;;;;;20.35;14.25;;;;;;;8.24;95.66;102488.34;10419266;28;20038;-70
2023/03/02 09:35:34;;;;;;;19.30;13.93;;;;;;;8.70;91.01;102490.28;10421246;28;20465;-71
2023/03/02 09:40:34;;;;;;;25.95;14.20;;;;;;;8.71;81.24;102493.81;10420459;28;20042;-71
2023/03/02 09:45:56;;;;;;;23.55;13.18;;;;;;;8.52;86.15;102495.59;10402701;28;20491;-71
2023/03/02 09:51:15;;;;;;;20.35;11.90;;;;;;;9.03;80.35;102490.72;10419594;28;20033;-70
2023/03/02 09:56:16;;;;;;;20.02;12.23;;;;;;;8.78;75.84;102490.41;10419818;28;20025;-70
2023/03/02 10:01:21;;;;;;;22.50;13.20;;;;;;;9.01;78.97;102482.78;10401560;28;20061;-70
2023/03/02 10:06:21;;;;;;;20.65;14.60;;;;;;;9.44;83.31;102489.41;10401098;28;20033;-71
2023/03/02 10:11:40;;;;;;;21.73;13.63;;;;;;;9.47;66.95;102499.91;10417923;28;20054;-71
2023/03/02 10:16:48;;;;;;;18.77;11.45;;;;;;;8.70;70.13;102486.72;10417648;28;20034;-71
2023/03/02 10:21:51;;;;;;;16.40;11.82;;;;;;;8.74;72.38;102474.63;10399396;28;20147;-71
2023/03/02 10:26:53;;;;;;;16.27;11.25;;;;;;;9.19;67.99;102465.78;10415501;28;20029;-71
2023/03/02 10:32:10;;;;;;;17.10;10.95;;;;;;;9.06;68.79;102482.31;10416311;28;20452;-71
2023/03/02 10:37:16;;;;;;;15.48;11.20;;;;;;;9.54;77.38;102468.56;10400429;28;20083;-71
2023/03/02 10:42:35;;;;;;;12.88;10.43;;;;;;;9.50;66.25;102475.28;10415705;28;20030;-70
2023/03/02 10:47:35;;;;;;;14.45;11.15;;;;;;;9.20;72.06;102453.97;10400877;28;20374;-70
2023/03/02 10:52:36;;;;;;;15.27;11.73;;;;;;;9.67;70.28;102464.66;10398512;28;20026;-72
2023/03/02 10:57:37;;;;;;;15.13;11.65;;;;;;;9.55;67.55;102469.41;10415864;28;20445;-71
2023/03/02 11:02:38;;;;;;;18.02;12.13;;;;;;;9.69;75.56;102465.34;10416064;28;20360;-71
2023/03/02 11:07:38;;;;;;;11.45;9.85;;;;;;;10.12;73.55;102467.28;10414797;28;20053;-70
2023/03/02 11:12:45;;;;;;;17.38;11.65;;;;;;;10.44;71.41;102466.72;10417111;28;20061;-71
2023/03/02 11:17:47;;;;;;;25.55;12.38;;;;;;;10.64;67.39;102461.09;10415446;28;20074;-70
2023/03/02 11:23:12;;;;;;;16.27;10.95;;;;;;;10.28;68.44;102455.75;10413420;28;20042;-71
2023/03/02 11:28:46;;;;;;;14.07;11.85;;;;;;;10.27;64.49;102466.72;10415678;28;20049;-70
2023/03/02 11:34:02;;;;;;;24.90;11.73;;;;;;;9.88;65.47;102465.19;10397721;28;20388;-70
2023/03/02 11:39:08;;;;;;;11.85;8.98;;;;;;;10.15;69.48;102460.72;10415754;28;20051;-71
2023/03/02 11:44:18;;;;;;;18.90;11.77;;;;;;;10.78;70.04;102463.19;10414534;28;20034;-71
2023/03/02 11:49:21;;;;;;;21.35;12.85;;;;;;;11.38;68.43;102459.56;10412530;28;20057;-71
2023/03/02 11:54:42;;;;;;;17.58;10.32;;;;;;;11.15;62.62;102453.91;10412842;28;20038;-70
2023/03/02 11:59:43;;;;;;;18.75;11.55;;;;;;;11.63;67.46;102452.34;10413141;28;20073;-70
2023/03/02 12:04:43;;;;;;;19.85;11.70;;;;;;;11.65;64.66;102455.75;10397405;28;20036;-69
2023/03/02 12:09:43;;;;;;;18.65;11.55;;;;;;;11.46;62.16;102450.63;10412940;28;20064;-70
2023/03/02 12:14:44;;;;;;;15.48;10.55;;;;;;;11.77;69.09;102443.56;10413901;28;20045;-70
2023/03/02 12:19:44;;;;;;;16.23;11.55;;;;;;;11.98;66.42;102436.81;10412325;28;20069;-70
2023/03/02 12:24:45;;;;;;;18.42;12.07;;;;;;;11.75;61.85;102437.44;10413811;28;20069;-70
2023/03/02 12:29:49;;;;;;;16.17;12.90;;;;;;;11.44;61.37;102431.78;10412577;28;20503;-70
2023/03/02 12:34:55;;;;;;;24.73;11.88;;;;;;;11.05;54.32;102431.50;10412335;28;20053;-70
2023/03/02 12:40:30;;;;;;;17.40;11.73;;;;;;;10.71;56.15;102429.63;10413667;28;20069;-70
2023/03/02 12:45:49;;;;;;;16.35;11.98;;;;;;;11.71;66.07;102419.81;10415150;28;20034;-71
2023/03/02 12:50:49;;;;;;;16.48;10.68;;;;;;;12.26;59.42;102407.44;10420687;28;20029;-70
2023/03/02 12:55:49;;;;;;;18.27;12.27;;;;;;;12.15;64.58;102403.19;10420983;28;20057;-70
2023/03/02 13:00:55;;;;;;;17.33;13.70;;;;;;;-145.97;100.00;64257.31;10421822;28;20030;-70
2023/03/02 13:06:12;;;;;;;15.60;11.40;;;;;;;-145.97;100.00;64257.31;10421102;28;20151;-71
2023/03/02 13:11:13;;;;;;;;;;;;;;;-145.97;100.00;64257.31;10419747;28;20136;-69
2023/03/02 13:16:24;;;;;;;17.70;12.45;;;;;;;-145.97;100.00;64257.31;10436088;28;20016;-70
2023/03/02 13:21:29;;;;;;;19.17;12.48;;;;;;;-145.97;100.00;64257.31;10420539;28;20041;-70
2023/03/02 13:26:34;;;;;;;16.67;11.32;;;;;;;-145.97;100.00;64257.31;10419039;28;20454;-71
2023/03/02 13:31:34;;;;;;;15.48;12.05;;;;;;;-145.97;100.00;64257.31;10402105;28;20356;-70
2023/03/02 13:36:37;;;;;;;16.65;11.38;;;;;;;-145.97;100.00;64257.31;10418431;28;20132;-70
2023/03/02 13:41:39;;;;;;;16.52;12.25;;;;;;;-145.97;100.00;64257.31;10401811;28;20388;-70
2023/03/02 13:46:39;;;;;;;16.63;12.15;;;;;;;-145.97;100.00;64257.31;10418076;28;20041;-70
2023/03/02 13:51:42;;;;;;;17.83;11.18;;;;;;;-145.97;100.00;64257.31;10418900;28;20060;-71
2023/03/02 13:56:43;;;;;;;15.57;11.68;;;;;;;-145.97;100.00;64257.31;10417729;28;20453;-70
2023/03/02 14:01:43;;;;;;;26.40;13.15;;;;;;;-145.97;100.00;64257.31;10400122;28;20097;-70
2023/03/02 14:06:44;;;;;;;17.90;11.57;;;;;;;-145.97;100.00;64257.31;10416922;28;20032;-71
2023/03/02 14:11:54;;;;;;;17.55;11.95;;;;;;;-145.97;100.00;64257.31;10416299;28;20508;-69
2023/03/02 14:16:54;;;;;;;24.55;13.90;;;;;;;-145.97;100.00;64257.31;10399859;28;20091;-70
2023/03/02 14:21:55;;;;;;;26.55;13.98;;;;;;;-145.97;100.00;64257.31;10416533;28;20103;-71
2023/03/02 14:26:55;;;;;;;20.38;13.90;;;;;;;-145.97;100.00;64257.31;10416226;28;20566;-70
2023/03/02 14:32:00;;;;;;;18.52;13.07;;;;;;;-145.97;100.00;64257.31;10416579;28;20389;-70
2023/03/02 14:37:06;;;;;;;21.90;12.75;;;;;;;-145.97;100.00;64257.31;10416478;28;20052;-71
2023/03/02 14:42:11;;;;;;;26.20;14.55;;;;;;;-145.97;100.00;64257.31;10415961;28;20072;-70
2023/03/02 14:47:12;;;;;;;13.95;11.32;;;;;;;-145.97;100.00;64257.31;10415377;28;20095;-70
2023/03/02 14:52:23;;;;;;;20.42;13.75;;;;;;;-145.97;0.00;64257.31;10415266;28;20079;-70
2023/03/02 14:57:25;;;;;;;25.02;13.48;;;;;;;-98.94;100.00;64257.31;10399155;28;20069;-69
2023/03/02 15:02:25;;;;;;;18.58;13.38;;;;;;;9.37;73.82;102314.44;10414690;28;20575;-70
2023/03/02 15:07:26;;;;;;;19.58;12.60;;;;;;;9.55;100.00;114739.41;10416185;28;20057;-70
2023/03/02 15:12:26;;;;;;;17.08;11.50;;;;;;;-145.97;100.00;64257.59;10416548;28;20139;-70
2023/03/02 15:17:27;;;;;;;19.30;13.18;;;;;;;9.10;77.73;101937.22;10415740;28;20096;-70
2023/03/02 15:22:27;;;;;;;19.48;13.85;;;;;;;8.95;78.51;102293.41;10415359;28;20431;-70
2023/03/02 15:27:28;;;;;;;19.17;12.75;;;;;;;8.47;79.74;102308.88;10397662;28;20104;-70
2023/03/02 15:32:28;;;;;;;26.15;14.00;;;;;;;8.11;81.54;102306.00;10416258;28;20030;-70
2023/03/02 15:37:29;;;;;;;16.52;12.27;;;;;;;7.82;82.49;102313.34;10413603;28;20064;-71
2023/03/02 15:42:29;;;;;;;15.57;11.40;;;;;;;7.59;82.99;102321.72;10414050;28;20464;-70
2023/03/02 15:47:29;;;;;;;21.55;13.77;;;;;;;7.20;87.17;102304.69;10415777;28;20468;-70
2023/03/02 15:52:30;;;;;;;27.20;14.40;;;;;;;7.02;88.58;102311.75;10415540;28;20124;-70
2023/03/02 15:57:35;;;;;;;20.80;13.88;;;;;;;6.99;88.31;102313.75;10414987;28;20048;-70
2023/03/02 16:02:36;;;;;;;17.25;12.25;;;;;;;6.92;88.60;102328.78;10398685;28;20025;-70
2023/03/02 16:07:36;;;;;;;19.13;14.63;;;;;;;6.78;91.72;102331.00;10415198;28;20037;-70
2023/03/02 16:12:36;;;;;;;17.92;12.57;;;;;;;6.69;90.70;102338.91;10415995;28;20199;-70
2023/03/02 16:17:37;;;;;;;23.52;13.85;;;;;;;6.63;93.13;102342.13;10415980;28;20045;-71
2023/03/02 16:22:37;;;;;;;23.27;13.20;;;;;;;6.50;94.75;102346.91;10416200;28;20438;-70
2023/03/02 16:27:38;;;;;;;22.90;14.70;;;;;;;6.43;95.04;102337.69;10422464;28;20052;-70
2023/03/02 16:32:38;;;;;;;21.10;14.88;;;;;;;6.29;98.00;102353.19;10420890;28;20033;-70
2023/03/02 16:37:38;;;;;;;19.05;15.93;;;;;;;6.26;97.16;102353.47;10421901;28;20125;-70
2023/03/02 16:42:39;;;;;;;24.15;14.13;;;;;;;6.22;96.19;102359.22;10422302;28;20460;-70
2023/03/02 16:47:40;;;;;;;28.88;17.58;;;;;;;6.03;100.00;102368.91;10404786;28;20033;-70
2023/03/02 16:52:40;;;;;;;26.85;15.60;;;;;;;6.03;98.71;102368.03;10421153;28;20457;-71
2023/03/02 16:57:41;;;;;;;35.35;16.77;;;;;;;5.93;98.65;102369.81;10421360;28;20069;-71
2023/03/02 17:02:42;;;;;;;25.58;17.30;;;;;;;5.79;98.84;102377.19;10419312;28;20033;-71
2023/03/02 17:07:42;;;;;;;26.02;16.50;;;;;;;5.72;99.34;102372.47;10421310;28;20091;-71
2023/03/02 17:12:42;;;;;;;22.17;14.15;;;;;;;5.64;98.59;102374.94;10418817;28;20046;-70
2023/03/02 17:17:43;;;;;;;22.65;16.05;;;;;;;5.50;100.00;102376.94;10419985;28;20514;-70
2023/03/02 17:22:43;;;;;;;22.38;16.25;;;;;;;5.41;100.00;102380.41;10421002;28;20061;-71
2023/03/02 17:27:44;;;;;;;27.58;17.83;;;;;;;5.32;100.00;102381.16;10421369;28;20445;-71
2023/03/02 17:32:44;;;;;;;23.80;17.77;;;;;;;5.22;100.00;102397.19;10420099;28;20033;-71
2023/03/02 17:37:45;;;;;;;25.75;16.27;;;;;;;5.16;100.00;102405.75;10419893;28;20077;-70
2023/03/02 17:42:45;;;;;;;26.08;17.42;;;;;;;5.11;100.00;102413.34;10418147;28;20453;-71
2023/03/02 17:47:47;;;;;;;21.67;16.42;;;;;;;4.94;100.00;102416.50;10420339;28;20038;-70
2023/03/02 17:52:47;;;;;;;23.90;15.77;;;;;;;4.82;100.00;102404.94;10418864;28;20109;-70
2023/03/02 17:57:48;;;;;;;27.38;16.30;;;;;;;4.82;100.00;102416.53;10417876;28;20499;-71
2023/03/02 18:02:48;;;;;;;25.95;17.75;;;;;;;4.78;100.00;102427.63;10420168;28;20124;-70
2023/03/02 18:07:50;;;;;;;31.25;19.23;;;;;;;4.70;100.00;102430.94;10418083;28;20473;-70
2023/03/02 18:12:53;;;;;;;23.88;16.05;;;;;;;4.70;100.00;102430.94;10419515;28;20104;-71
2023/03/02 18:17:53;;;;;;;25.80;15.68;;;;;;;4.60;100.00;102441.53;10418995;28;20037;-70
2023/03/02 18:22:54;;;;;;;25.38;17.70;;;;;;;4.59;100.00;102445.16;10418611;28;20041;-71
2023/03/02 18:27:54;;;;;;;34.45;19.75;;;;;;;4.61;100.00;102453.13;10419333;28;20049;-71
2023/03/02 18:32:54;;;;;;;30.52;19.58;;;;;;;4.55;100.00;102451.75;10418656;28;20397;-71
2023/03/02 18:37:55;;;;;;;36.00;19.77;;;;;;;4.59;100.00;102455.91;10416831;28;20041;-71
2023/03/02 18:42:55;;;;;;;32.63;20.02;;;;;;;4.56;100.00;102461.53;10417680;28;20494;-71
2023/03/02 18:47:56;;;;;;;38.75;18.92;;;;;;;4.52;100.00;102461.88;10418128;28;20038;-71
2023/03/02 18:52:57;;;;;;;33.15;19.23;;;;;;;4.44;100.00;102473.22;10416115;28;20033;-72
2023/03/02 18:57:57;;;;;;;31.30;17.67;;;;;;;4.36;100.00;102470.25;10415814;28;20040;-71
2023/03/02 19:02:58;;;;;;;36.65;19.15;;;;;;;4.32;100.00;102468.78;10416667;28;20032;-72
2023/03/02 19:07:59;;;;;;;30.30;18.70;;;;;;;4.27;100.00;102470.97;10415383;28;20451;-70
2023/03/02 19:12:59;;;;;;;28.35;18.15;;;;;;;4.17;100.00;102473.50;10416665;28;20076;-71
2023/03/02 19:17:59;;;;;;;30.90;17.90;;;;;;;4.11;100.00;102473.97;10414963;28;20072;-71
2023/03/02 19:23:00;;;;;;;34.95;16.90;;;;;;;3.95;100.00;102479.63;10414785;28;20163;-71
2023/03/02 19:28:01;;;;;;;24.08;16.45;;;;;;;3.96;100.00;102484.03;10414513;28;20064;-71
2023/03/02 19:33:02;;;;;;;27.27;17.63;;;;;;;3.89;100.00;102478.28;10399116;28;20044;-71
2023/03/02 19:38:03;;;;;;;29.70;17.20;;;;;;;3.78;100.00;102486.25;10415401;28;20120;-71
2023/03/02 19:43:04;;;;;;;22.42;15.80;;;;;;;3.64;100.00;102478.41;10414717;28;20384;-70
2023/03/02 19:48:05;;;;;;;25.98;16.58;;;;;;;3.68;100.00;102495.94;10415367;28;20041;-71
2023/03/02 19:53:05;;;;;;;23.08;14.48;;;;;;;3.57;100.00;102494.03;10414775;28;20146;-70
2023/03/02 19:58:06;;;;;;;24.48;17.25;;;;;;;3.53;100.00;102484.53;10413846;28;20033;-71
2023/03/02 20:03:07;;;;;;;25.30;16.85;;;;;;;3.46;100.00;102497.53;10415233;28;20065;-75
2023/03/02 20:08:07;;;;;;;22.27;16.15;;;;;;;3.39;100.00;102506.97;10414535;28;20139;-75
2023/03/02 20:13:08;;;;;;;26.13;15.68;;;;;;;3.38;100.00;102518.66;10413750;28;20377;-75
2023/03/02 20:18:11;;;;;;;22.45;14.60;;;;;;;3.25;100.00;102507.09;10415688;28;20108;-77
2023/03/02 20:23:13;;;;;;;20.60;14.73;;;;;;;3.27;100.00;102510.53;10414178;28;20365;-77
2023/03/02 20:28:14;;;;;;;24.38;14.70;;;;;;;3.20;100.00;102509.28;10413938;28;20044;-73
2023/03/02 20:33:15;;;;;;;24.65;16.60;;;;;;;3.21;100.00;102509.16;10414406;28;20037;-75
2023/03/02 20:38:22;;;;;;;19.80;14.63;;;;;;;3.14;100.00;102509.69;10413322;28;20123;-77
2023/03/02 20:43:22;;;;;;;;;;;;;;;3.13;100.00;102521.38;10414072;28;20021;-78
2023/03/02 20:48:23;;;;;;;21.10;15.15;;;;;;;3.11;100.00;102515.28;10429632;28;19979;-80
2023/03/02 20:53:23;;;;;;;17.92;15.60;;;;;;;3.02;100.00;102517.63;10413948;28;20069;-80
2023/03/02 20:58:23;;;;;;;21.20;15.73;;;;;;;2.93;100.00;102518.28;10414466;28;20038;-79
2023/03/02 21:03:24;;;;;;;23.85;17.38;;;;;;;2.84;100.00;102526.09;10417916;28;20025;-80
2023/03/02 21:08:24;;;;;;;22.77;15.75;;;;;;;2.76;100.00;102516.78;10417723;28;20041;-81
2023/03/02 21:13:25;;;;;;;23.77;15.70;;;;;;;2.76;100.00;102523.97;10423880;28;20144;-79
2023/03/02 21:18:25;;;;;;;24.73;16.60;;;;;;;2.67;100.00;102522.78;10423699;28;20119;-79
2023/03/02 21:23:26;;;;;;;24.85;16.63;;;;;;;2.70;100.00;102527.91;10404768;28;20033;-79
2023/03/02 21:28:27;;;;;;;24.70;16.92;;;;;;;2.54;100.00;102525.44;10405925;28;20047;-79
2023/03/02 21:33:27;;;;;;;20.10;14.52;;;;;;;2.47;100.00;102526.81;10424512;28;20073;-80
2023/03/02 21:38:27;;;;;;;19.38;15.13;;;;;;;2.50;100.00;102529.28;10422075;28;20042;-80
2023/03/02 21:43:28;;;;;;;23.30;14.77;;;;;;;2.42;100.00;102522.75;10424515;28;20029;-79
2023/03/02 21:48:28;;;;;;;19.75;14.48;;;;;;;2.35;100.00;102529.47;10421482;28;20041;-78
2023/03/02 21:53:29;;;;;;;28.33;15.50;;;;;;;2.29;100.00;102541.44;10404847;28;20095;-81
2023/03/02 21:58:29;;;;;;;18.98;14.73;;;;;;;2.21;100.00;102525.91;10422886;28;20037;-81
2023/03/02 22:03:30;;;;;;;20.63;14.10;;;;;;;2.26;100.00;102539.81;10403487;28;20034;-77
2023/03/02 22:08:30;;;;;;;19.60;14.27;;;;;;;2.22;100.00;102529.44;10419792;28;20121;-80
2023/03/02 22:13:31;;;;;;;18.23;13.40;;;;;;;2.19;100.00;102529.66;10418382;28;20054;-79
2023/03/02 22:18:31;;;;;;;29.42;13.70;;;;;;;2.17;100.00;102531.56;10417508;28;20041;-79
2023/03/02 22:23:32;;;;;;;22.52;11.98;;;;;;;2.02;100.00;102525.44;10420490;28;20025;-79
2023/03/02 22:28:38;;;;;;;15.80;12.32;;;;;;;1.96;100.00;102524.03;10421066;28;20127;-79
2023/03/02 22:33:40;;;;;;;17.27;12.32;;;;;;;1.95;100.00;102530.34;10421401;28;20040;-79